Search for airport 
image banner adimage banner ad
image banner ad

OOSH - Sohar

Located in Suhar, Oman

ICAO - OOSH, IATA -

Data provided by Airmate  

General information

Coordinates: N24°23'10" E56°37'32"
Elevation is 144 feet MSL.
 
View others Airports in Al Batinah

Operational data

Open for public use
Current time UTC:
Current local time:
Weather
METAR: OOSH 040850Z AUTO 04006KT //// ////// 30/16 Q1011
TAF: TAF OOSH 040500Z 0406/0512 04010KT 8000 NSC BECMG 0414/0416 VRB02KT BECMG 0506/0508 05010KT
View NOTAMs / SUP AIP / TFR affecting this airport [VIEW]
Communications frequencies: [VIEW]

Runways:

RWY identifierQFULength (ft)Width (ft)SurfaceLDA (ft)
15155°13127197
33335°13127197

Airport contact information

Address: Suhar Oman

Satellite view of OOSH